sensor_id;sensor_type;location;lat;lon;timestamp;P1;durP1;ratioP1;P2;durP2;ratioP2
3849;SDS011;1940;51.052;13.678;2023-07-09T00:01:17;14.77;;;10.70;;
3849;SDS011;1940;51.052;13.678;2023-07-09T00:03:43;16.93;;;10.33;;
3849;SDS011;1940;51.052;13.678;2023-07-09T00:06:19;17.10;;;12.03;;
3849;SDS011;1940;51.052;13.678;2023-07-09T00:08:45;13.30;;;10.10;;
3849;SDS011;1940;51.052;13.678;2023-07-09T00:11:12;12.73;;;8.90;;
3849;SDS011;1940;51.052;13.678;2023-07-09T00:13:39;10.70;;;8.63;;
3849;SDS011;1940;51.052;13.678;2023-07-09T00:16:07;21.20;;;13.87;;
3849;SDS011;1940;51.052;13.678;2023-07-09T00:18:44;13.83;;;9.70;;
3849;SDS011;1940;51.052;13.678;2023-07-09T00:21:10;14.00;;;9.50;;
3849;SDS011;1940;51.052;13.678;2023-07-09T00:23:35;10.53;;;8.00;;
3849;SDS011;1940;51.052;13.678;2023-07-09T00:26:06;10.60;;;8.03;;
3849;SDS011;1940;51.052;13.678;2023-07-09T00:28:34;12.40;;;8.70;;
3849;SDS011;1940;51.052;13.678;2023-07-09T00:31:00;12.40;;;7.97;;
3849;SDS011;1940;51.052;13.678;2023-07-09T00:33:25;12.03;;;8.43;;
3849;SDS011;1940;51.052;13.678;2023-07-09T00:35:56;12.20;;;8.73;;
3849;SDS011;1940;51.052;13.678;2023-07-09T00:38:22;13.53;;;8.00;;
3849;SDS011;1940;51.052;13.678;2023-07-09T00:41:03;11.10;;;8.30;;
3849;SDS011;1940;51.052;13.678;2023-07-09T00:43:31;12.00;;;8.23;;
3849;SDS011;1940;51.052;13.678;2023-07-09T00:46:11;9.57;;;7.80;;
3849;SDS011;1940;51.052;13.678;2023-07-09T00:48:45;12.97;;;7.70;;
3849;SDS011;1940;51.052;13.678;2023-07-09T00:51:14;11.20;;;7.93;;
3849;SDS011;1940;51.052;13.678;2023-07-09T00:53:43;14.87;;;8.93;;
3849;SDS011;1940;51.052;13.678;2023-07-09T00:56:12;12.87;;;7.73;;
3849;SDS011;1940;51.052;13.678;2023-07-09T00:58:41;11.70;;;7.37;;
3849;SDS011;1940;51.052;13.678;2023-07-09T01:01:12;14.73;;;7.20;;
3849;SDS011;1940;51.052;13.678;2023-07-09T01:03:44;12.37;;;7.30;;
3849;SDS011;1940;51.052;13.678;2023-07-09T01:06:12;12.73;;;8.03;;
3849;SDS011;1940;51.052;13.678;2023-07-09T01:08:40;9.73;;;7.37;;
3849;SDS011;1940;51.052;13.678;2023-07-09T01:11:16;9.70;;;6.87;;
3849;SDS011;1940;51.052;13.678;2023-07-09T01:13:46;9.87;;;7.03;;
3849;SDS011;1940;51.052;13.678;2023-07-09T01:16:12;11.80;;;8.00;;
3849;SDS011;1940;51.052;13.678;2023-07-09T01:18:38;16.47;;;11.37;;
3849;SDS011;1940;51.052;13.678;2023-07-09T01:21:07;14.70;;;10.13;;
3849;SDS011;1940;51.052;13.678;2023-07-09T01:23:40;13.57;;;9.80;;
3849;SDS011;1940;51.052;13.678;2023-07-09T01:26:08;10.70;;;8.20;;
3849;SDS011;1940;51.052;13.678;2023-07-09T01:28:37;14.67;;;9.37;;
3849;SDS011;1940;51.052;13.678;2023-07-09T01:31:06;14.77;;;9.33;;
3849;SDS011;1940;51.052;13.678;2023-07-09T01:33:33;14.53;;;9.47;;
3849;SDS011;1940;51.052;13.678;2023-07-09T01:35:58;12.10;;;7.60;;
3849;SDS011;1940;51.052;13.678;2023-07-09T01:38:25;11.73;;;7.80;;
3849;SDS011;1940;51.052;13.678;2023-07-09T01:40:55;10.67;;;7.63;;
3849;SDS011;1940;51.052;13.678;2023-07-09T01:43:21;10.50;;;8.00;;
3849;SDS011;1940;51.052;13.678;2023-07-09T01:45:46;11.77;;;8.27;;
3849;SDS011;1940;51.052;13.678;2023-07-09T01:48:15;10.13;;;6.97;;
3849;SDS011;1940;51.052;13.678;2023-07-09T01:50:42;12.33;;;7.00;;
3849;SDS011;1940;51.052;13.678;2023-07-09T01:53:10;8.93;;;6.63;;
3849;SDS011;1940;51.052;13.678;2023-07-09T01:55:40;14.70;;;7.00;;
3849;SDS011;1940;51.052;13.678;2023-07-09T01:58:05;11.63;;;6.70;;
3849;SDS011;1940;51.052;13.678;2023-07-09T02:00:32;10.73;;;7.03;;
3849;SDS011;1940;51.052;13.678;2023-07-09T02:03:00;8.77;;;7.00;;
3849;SDS011;1940;51.052;13.678;2023-07-09T02:05:27;9.63;;;7.17;;
3849;SDS011;1940;51.052;13.678;2023-07-09T02:07:55;11.90;;;8.73;;
3849;SDS011;1940;51.052;13.678;2023-07-09T02:10:20;13.13;;;7.60;;
3849;SDS011;1940;51.052;13.678;2023-07-09T02:12:46;9.90;;;6.70;;
3849;SDS011;1940;51.052;13.678;2023-07-09T02:15:12;12.80;;;7.80;;
3849;SDS011;1940;51.052;13.678;2023-07-09T02:17:38;9.23;;;7.03;;
3849;SDS011;1940;51.052;13.678;2023-07-09T02:20:04;10.20;;;7.53;;
3849;SDS011;1940;51.052;13.678;2023-07-09T02:22:32;8.23;;;6.60;;
3849;SDS011;1940;51.052;13.678;2023-07-09T02:25:01;18.17;;;7.57;;
3849;SDS011;1940;51.052;13.678;2023-07-09T02:27:27;11.47;;;6.50;;
3849;SDS011;1940;51.052;13.678;2023-07-09T02:29:53;10.63;;;6.87;;
3849;SDS011;1940;51.052;13.678;2023-07-09T02:32:20;8.20;;;6.40;;
3849;SDS011;1940;51.052;13.678;2023-07-09T02:34:48;8.37;;;6.20;;
3849;SDS011;1940;51.052;13.678;2023-07-09T02:37:17;8.90;;;6.23;;
3849;SDS011;1940;51.052;13.678;2023-07-09T02:39:44;8.47;;;6.53;;
3849;SDS011;1940;51.052;13.678;2023-07-09T02:42:10;8.30;;;6.20;;
3849;SDS011;1940;51.052;13.678;2023-07-09T02:44:36;7.90;;;5.97;;
3849;SDS011;1940;51.052;13.678;2023-07-09T02:47:02;8.27;;;5.93;;
3849;SDS011;1940;51.052;13.678;2023-07-09T02:49:28;9.70;;;6.60;;
3849;SDS011;1940;51.052;13.678;2023-07-09T02:51:54;7.60;;;5.90;;
3849;SDS011;1940;51.052;13.678;2023-07-09T02:54:19;11.40;;;6.00;;
3849;SDS011;1940;51.052;13.678;2023-07-09T02:56:45;9.67;;;6.07;;
3849;SDS011;1940;51.052;13.678;2023-07-09T02:59:11;10.07;;;6.17;;
3849;SDS011;1940;51.052;13.678;2023-07-09T03:01:37;9.93;;;6.67;;
3849;SDS011;1940;51.052;13.678;2023-07-09T03:04:02;7.23;;;5.77;;
3849;SDS011;1940;51.052;13.678;2023-07-09T03:06:28;13.50;;;6.97;;
3849;SDS011;1940;51.052;13.678;2023-07-09T03:08:57;9.83;;;5.60;;
3849;SDS011;1940;51.052;13.678;2023-07-09T03:11:23;8.57;;;5.73;;
3849;SDS011;1940;51.052;13.678;2023-07-09T03:13:49;8.40;;;5.83;;
3849;SDS011;1940;51.052;13.678;2023-07-09T03:16:15;8.37;;;6.10;;
3849;SDS011;1940;51.052;13.678;2023-07-09T03:18:41;6.87;;;5.40;;
3849;SDS011;1940;51.052;13.678;2023-07-09T03:21:06;9.33;;;5.90;;
3849;SDS011;1940;51.052;13.678;2023-07-09T03:23:32;7.67;;;5.80;;
3849;SDS011;1940;51.052;13.678;2023-07-09T03:25:58;8.63;;;6.23;;
3849;SDS011;1940;51.052;13.678;2023-07-09T03:28:24;8.90;;;6.03;;
3849;SDS011;1940;51.052;13.678;2023-07-09T03:30:52;8.70;;;6.20;;
3849;SDS011;1940;51.052;13.678;2023-07-09T03:33:19;8.10;;;6.10;;
3849;SDS011;1940;51.052;13.678;2023-07-09T03:35:45;8.43;;;5.90;;
3849;SDS011;1940;51.052;13.678;2023-07-09T03:38:11;7.37;;;5.70;;
3849;SDS011;1940;51.052;13.678;2023-07-09T03:40:36;11.40;;;5.90;;
3849;SDS011;1940;51.052;13.678;2023-07-09T03:43:03;7.37;;;5.67;;
3849;SDS011;1940;51.052;13.678;2023-07-09T03:45:29;8.67;;;5.20;;
3849;SDS011;1940;51.052;13.678;2023-07-09T03:47:55;8.97;;;5.43;;
3849;SDS011;1940;51.052;13.678;2023-07-09T03:50:21;9.47;;;5.27;;
3849;SDS011;1940;51.052;13.678;2023-07-09T03:52:47;8.40;;;5.47;;
3849;SDS011;1940;51.052;13.678;2023-07-09T03:55:12;8.10;;;5.50;;
3849;SDS011;1940;51.052;13.678;2023-07-09T03:57:39;7.43;;;4.90;;
3849;SDS011;1940;51.052;13.678;2023-07-09T04:00:05;6.60;;;5.00;;
3849;SDS011;1940;51.052;13.678;2023-07-09T04:02:36;6.70;;;5.13;;
3849;SDS011;1940;51.052;13.678;2023-07-09T04:05:02;5.70;;;4.77;;
3849;SDS011;1940;51.052;13.678;2023-07-09T04:07:28;8.43;;;4.90;;
3849;SDS011;1940;51.052;13.678;2023-07-09T04:09:53;8.07;;;5.23;;
3849;SDS011;1940;51.052;13.678;2023-07-09T04:12:19;12.40;;;4.67;;
3849;SDS011;1940;51.052;13.678;2023-07-09T04:14:44;7.03;;;5.17;;
3849;SDS011;1940;51.052;13.678;2023-07-09T04:17:10;7.10;;;4.83;;
3849;SDS011;1940;51.052;13.678;2023-07-09T04:19:36;6.57;;;5.23;;
3849;SDS011;1940;51.052;13.678;2023-07-09T04:22:01;6.20;;;5.20;;
3849;SDS011;1940;51.052;13.678;2023-07-09T04:24:27;5.60;;;5.00;;
3849;SDS011;1940;51.052;13.678;2023-07-09T04:26:53;6.40;;;5.20;;
3849;SDS011;1940;51.052;13.678;2023-07-09T04:29:21;4.97;;;4.47;;
3849;SDS011;1940;51.052;13.678;2023-07-09T04:31:47;6.87;;;4.60;;
3849;SDS011;1940;51.052;13.678;2023-07-09T04:34:12;5.80;;;4.33;;
3849;SDS011;1940;51.052;13.678;2023-07-09T04:36:38;4.43;;;4.03;;
3849;SDS011;1940;51.052;13.678;2023-07-09T04:39:04;6.33;;;4.40;;
3849;SDS011;1940;51.052;13.678;2023-07-09T04:41:29;8.83;;;4.90;;
3849;SDS011;1940;51.052;13.678;2023-07-09T04:43:55;6.30;;;4.60;;
3849;SDS011;1940;51.052;13.678;2023-07-09T04:46:21;8.20;;;5.00;;
3849;SDS011;1940;51.052;13.678;2023-07-09T04:48:46;5.33;;;4.70;;
3849;SDS011;1940;51.052;13.678;2023-07-09T04:51:12;6.23;;;5.03;;
3849;SDS011;1940;51.052;13.678;2023-07-09T04:53:37;9.37;;;4.97;;
3849;SDS011;1940;51.052;13.678;2023-07-09T04:56:03;5.17;;;4.67;;
3849;SDS011;1940;51.052;13.678;2023-07-09T04:58:29;6.73;;;4.90;;
3849;SDS011;1940;51.052;13.678;2023-07-09T05:00:58;5.63;;;4.90;;
3849;SDS011;1940;51.052;13.678;2023-07-09T05:03:24;7.97;;;4.80;;
3849;SDS011;1940;51.052;13.678;2023-07-09T05:05:50;9.83;;;4.60;;
3849;SDS011;1940;51.052;13.678;2023-07-09T05:08:16;5.43;;;4.77;;
3849;SDS011;1940;51.052;13.678;2023-07-09T05:10:46;4.73;;;4.20;;
3849;SDS011;1940;51.052;13.678;2023-07-09T05:13:14;5.50;;;4.30;;
3849;SDS011;1940;51.052;13.678;2023-07-09T05:15:41;5.90;;;4.63;;
3849;SDS011;1940;51.052;13.678;2023-07-09T05:18:09;7.57;;;4.40;;
3849;SDS011;1940;51.052;13.678;2023-07-09T05:20:35;5.43;;;4.53;;
3849;SDS011;1940;51.052;13.678;2023-07-09T05:23:01;5.97;;;4.83;;
3849;SDS011;1940;51.052;13.678;2023-07-09T05:25:26;4.90;;;4.27;;
3849;SDS011;1940;51.052;13.678;2023-07-09T05:27:52;5.30;;;4.80;;
3849;SDS011;1940;51.052;13.678;2023-07-09T05:30:18;5.03;;;4.37;;
3849;SDS011;1940;51.052;13.678;2023-07-09T05:32:44;4.90;;;4.30;;
3849;SDS011;1940;51.052;13.678;2023-07-09T05:35:10;4.27;;;3.83;;
3849;SDS011;1940;51.052;13.678;2023-07-09T05:37:36;5.70;;;4.20;;
3849;SDS011;1940;51.052;13.678;2023-07-09T05:40:01;5.30;;;4.10;;
3849;SDS011;1940;51.052;13.678;2023-07-09T05:42:29;4.70;;;4.20;;
3849;SDS011;1940;51.052;13.678;2023-07-09T05:44:54;5.37;;;4.67;;
3849;SDS011;1940;51.052;13.678;2023-07-09T05:47:20;10.50;;;7.03;;
3849;SDS011;1940;51.052;13.678;2023-07-09T05:49:46;5.20;;;4.43;;
3849;SDS011;1940;51.052;13.678;2023-07-09T05:52:14;5.73;;;4.63;;
3849;SDS011;1940;51.052;13.678;2023-07-09T05:54:40;5.87;;;4.10;;
3849;SDS011;1940;51.052;13.678;2023-07-09T05:57:05;9.63;;;4.27;;
3849;SDS011;1940;51.052;13.678;2023-07-09T05:59:31;10.73;;;7.77;;
3849;SDS011;1940;51.052;13.678;2023-07-09T06:01:56;4.80;;;3.93;;
3849;SDS011;1940;51.052;13.678;2023-07-09T06:04:22;4.87;;;4.17;;
3849;SDS011;1940;51.052;13.678;2023-07-09T06:06:49;4.60;;;4.20;;
3849;SDS011;1940;51.052;13.678;2023-07-09T06:09:14;5.67;;;4.37;;
3849;SDS011;1940;51.052;13.678;2023-07-09T06:11:40;6.17;;;4.63;;
3849;SDS011;1940;51.052;13.678;2023-07-09T06:14:06;5.37;;;3.83;;
3849;SDS011;1940;51.052;13.678;2023-07-09T06:16:31;6.83;;;4.33;;
3849;SDS011;1940;51.052;13.678;2023-07-09T06:18:57;4.23;;;3.80;;
3849;SDS011;1940;51.052;13.678;2023-07-09T06:21:22;6.20;;;3.80;;
3849;SDS011;1940;51.052;13.678;2023-07-09T06:23:48;4.60;;;4.10;;
3849;SDS011;1940;51.052;13.678;2023-07-09T06:26:13;4.43;;;4.03;;
3849;SDS011;1940;51.052;13.678;2023-07-09T06:28:40;6.57;;;4.03;;
3849;SDS011;1940;51.052;13.678;2023-07-09T06:31:05;4.40;;;4.00;;
3849;SDS011;1940;51.052;13.678;2023-07-09T06:33:31;3.97;;;3.63;;
3849;SDS011;1940;51.052;13.678;2023-07-09T06:35:57;4.83;;;4.20;;
3849;SDS011;1940;51.052;13.678;2023-07-09T06:38:24;6.37;;;4.27;;
3849;SDS011;1940;51.052;13.678;2023-07-09T06:40:50;4.73;;;3.97;;
3849;SDS011;1940;51.052;13.678;2023-07-09T06:43:16;4.33;;;3.93;;
3849;SDS011;1940;51.052;13.678;2023-07-09T06:45:49;5.20;;;4.13;;
3849;SDS011;1940;51.052;13.678;2023-07-09T06:48:20;4.30;;;3.90;;
3849;SDS011;1940;51.052;13.678;2023-07-09T06:50:47;4.30;;;3.90;;
3849;SDS011;1940;51.052;13.678;2023-07-09T06:53:13;4.90;;;4.33;;
3849;SDS011;1940;51.052;13.678;2023-07-09T06:55:38;4.10;;;3.70;;
3849;SDS011;1940;51.052;13.678;2023-07-09T06:58:04;4.60;;;3.60;;
3849;SDS011;1940;51.052;13.678;2023-07-09T07:00:30;5.60;;;4.10;;
3849;SDS011;1940;51.052;13.678;2023-07-09T07:02:55;4.60;;;4.20;;
3849;SDS011;1940;51.052;13.678;2023-07-09T07:05:20;4.43;;;4.03;;
3849;SDS011;1940;51.052;13.678;2023-07-09T07:07:47;5.47;;;4.10;;
3849;SDS011;1940;51.052;13.678;2023-07-09T07:10:12;5.60;;;4.00;;
3849;SDS011;1940;51.052;13.678;2023-07-09T07:12:45;5.57;;;4.60;;
3849;SDS011;1940;51.052;13.678;2023-07-09T07:15:12;5.93;;;4.83;;
3849;SDS011;1940;51.052;13.678;2023-07-09T07:17:40;5.60;;;4.00;;
3849;SDS011;1940;51.052;13.678;2023-07-09T07:20:07;4.77;;;4.10;;
3849;SDS011;1940;51.052;13.678;2023-07-09T07:22:34;4.90;;;4.13;;
3849;SDS011;1940;51.052;13.678;2023-07-09T07:24:59;4.10;;;3.50;;
3849;SDS011;1940;51.052;13.678;2023-07-09T07:27:25;4.07;;;3.77;;
3849;SDS011;1940;51.052;13.678;2023-07-09T07:29:50;4.63;;;4.20;;
3849;SDS011;1940;51.052;13.678;2023-07-09T07:32:16;5.47;;;4.10;;
3849;SDS011;1940;51.052;13.678;2023-07-09T07:34:42;5.60;;;4.17;;
3849;SDS011;1940;51.052;13.678;2023-07-09T07:37:07;8.30;;;4.20;;
3849;SDS011;1940;51.052;13.678;2023-07-09T07:39:33;7.33;;;4.53;;
3849;SDS011;1940;51.052;13.678;2023-07-09T07:41:58;4.37;;;3.93;;
3849;SDS011;1940;51.052;13.678;2023-07-09T07:44:24;6.90;;;4.10;;
3849;SDS011;1940;51.052;13.678;2023-07-09T07:46:49;5.70;;;4.30;;
3849;SDS011;1940;51.052;13.678;2023-07-09T07:49:15;5.10;;;3.97;;
3849;SDS011;1940;51.052;13.678;2023-07-09T07:51:40;6.20;;;4.60;;
3849;SDS011;1940;51.052;13.678;2023-07-09T07:54:06;4.90;;;4.40;;
3849;SDS011;1940;51.052;13.678;2023-07-09T07:56:35;4.63;;;4.23;;
3849;SDS011;1940;51.052;13.678;2023-07-09T07:59:01;4.83;;;4.37;;
3849;SDS011;1940;51.052;13.678;2023-07-09T08:01:27;5.13;;;4.50;;
3849;SDS011;1940;51.052;13.678;2023-07-09T08:03:53;4.70;;;4.30;;
3849;SDS011;1940;51.052;13.678;2023-07-09T08:06:18;4.50;;;4.10;;
3849;SDS011;1940;51.052;13.678;2023-07-09T08:08:44;5.57;;;4.40;;
3849;SDS011;1940;51.052;13.678;2023-07-09T08:11:09;4.90;;;4.10;;
3849;SDS011;1940;51.052;13.678;2023-07-09T08:13:35;4.80;;;4.40;;
3849;SDS011;1940;51.052;13.678;2023-07-09T08:16:01;4.57;;;3.87;;
3849;SDS011;1940;51.052;13.678;2023-07-09T08:18:27;5.53;;;3.80;;
3849;SDS011;1940;51.052;13.678;2023-07-09T08:20:52;4.93;;;4.50;;
3849;SDS011;1940;51.052;13.678;2023-07-09T08:23:18;4.00;;;3.70;;
3849;SDS011;1940;51.052;13.678;2023-07-09T08:25:44;5.17;;;3.90;;
3849;SDS011;1940;51.052;13.678;2023-07-09T08:28:16;4.23;;;3.83;;
3849;SDS011;1940;51.052;13.678;2023-07-09T08:30:42;4.13;;;3.77;;
3849;SDS011;1940;51.052;13.678;2023-07-09T08:33:08;3.93;;;3.40;;
3849;SDS011;1940;51.052;13.678;2023-07-09T08:35:33;3.40;;;3.10;;
3849;SDS011;1940;51.052;13.678;2023-07-09T08:37:59;4.70;;;3.73;;
3849;SDS011;1940;51.052;13.678;2023-07-09T08:40:24;5.03;;;3.30;;
3849;SDS011;1940;51.052;13.678;2023-07-09T08:42:50;3.50;;;3.20;;
3849;SDS011;1940;51.052;13.678;2023-07-09T08:45:29;3.93;;;3.53;;
3849;SDS011;1940;51.052;13.678;2023-07-09T08:48:23;3.60;;;3.33;;
3849;SDS011;1940;51.052;13.678;2023-07-09T08:50:58;3.60;;;3.27;;
3849;SDS011;1940;51.052;13.678;2023-07-09T08:53:33;3.90;;;3.50;;
3849;SDS011;1940;51.052;13.678;2023-07-09T08:56:04;3.90;;;3.60;;
3849;SDS011;1940;51.052;13.678;2023-07-09T08:58:36;3.80;;;3.50;;
3849;SDS011;1940;51.052;13.678;2023-07-09T09:01:04;4.13;;;3.50;;
3849;SDS011;1940;51.052;13.678;2023-07-09T09:03:44;3.50;;;3.20;;
3849;SDS011;1940;51.052;13.678;2023-07-09T09:06:36;6.63;;;3.40;;
3849;SDS011;1940;51.052;13.678;2023-07-09T09:09:22;4.17;;;3.77;;
3849;SDS011;1940;51.052;13.678;2023-07-09T09:16:52;3.27;;;2.97;;
3849;SDS011;1940;51.052;13.678;2023-07-09T09:19:26;5.20;;;3.37;;
3849;SDS011;1940;51.052;13.678;2023-07-09T09:22:10;3.60;;;3.33;;
3849;SDS011;1940;51.052;13.678;2023-07-09T09:27:22;3.50;;;3.20;;
3849;SDS011;1940;51.052;13.678;2023-07-09T09:29:48;3.57;;;3.27;;
3849;SDS011;1940;51.052;13.678;2023-07-09T09:32:19;3.50;;;3.20;;
3849;SDS011;1940;51.052;13.678;2023-07-09T09:34:49;4.40;;;3.30;;
3849;SDS011;1940;51.052;13.678;2023-07-09T09:37:15;3.23;;;3.03;;
3849;SDS011;1940;51.052;13.678;2023-07-09T09:39:55;5.23;;;2.40;;
3849;SDS011;1940;51.052;13.678;2023-07-09T09:42:23;3.30;;;3.07;;
3849;SDS011;1940;51.052;13.678;2023-07-09T09:44:50;3.53;;;3.23;;
3849;SDS011;1940;51.052;13.678;2023-07-09T09:47:17;3.17;;;2.97;;
3849;SDS011;1940;51.052;13.678;2023-07-09T09:49:43;3.10;;;2.57;;
3849;SDS011;1940;51.052;13.678;2023-07-09T09:52:12;3.07;;;2.87;;
3849;SDS011;1940;51.052;13.678;2023-07-09T09:54:40;2.77;;;2.67;;
3849;SDS011;1940;51.052;13.678;2023-07-09T09:57:22;3.00;;;2.80;;
3849;SDS011;1940;51.052;13.678;2023-07-09T09:59:48;3.40;;;3.20;;
3849;SDS011;1940;51.052;13.678;2023-07-09T10:02:18;3.73;;;2.90;;
3849;SDS011;1940;51.052;13.678;2023-07-09T10:04:45;3.57;;;2.67;;
3849;SDS011;1940;51.052;13.678;2023-07-09T10:07:14;3.10;;;2.80;;
3849;SDS011;1940;51.052;13.678;2023-07-09T10:09:54;2.80;;;2.70;;
3849;SDS011;1940;51.052;13.678;2023-07-09T10:12:36;3.60;;;3.30;;
3849;SDS011;1940;51.052;13.678;2023-07-09T10:15:51;3.83;;;3.00;;
3849;SDS011;1940;51.052;13.678;2023-07-09T10:18:39;3.17;;;2.90;;
3849;SDS011;1940;51.052;13.678;2023-07-09T10:21:41;6.90;;;2.70;;
3849;SDS011;1940;51.052;13.678;2023-07-09T10:27:03;3.43;;;2.90;;
3849;SDS011;1940;51.052;13.678;2023-07-09T10:32:57;3.30;;;2.93;;
3849;SDS011;1940;51.052;13.678;2023-07-09T10:35:38;3.53;;;2.73;;
3849;SDS011;1940;51.052;13.678;2023-07-09T10:38:24;2.63;;;2.53;;
3849;SDS011;1940;51.052;13.678;2023-07-09T10:40:55;3.10;;;2.90;;
3849;SDS011;1940;51.052;13.678;2023-07-09T10:43:35;3.10;;;2.93;;
3849;SDS011;1940;51.052;13.678;2023-07-09T10:46:11;2.90;;;2.60;;
3849;SDS011;1940;51.052;13.678;2023-07-09T10:48:46;3.00;;;2.80;;
3849;SDS011;1940;51.052;13.678;2023-07-09T10:54:04;3.40;;;2.90;;
3849;SDS011;1940;51.052;13.678;2023-07-09T10:56:41;4.70;;;2.80;;
3849;SDS011;1940;51.052;13.678;2023-07-09T10:59:20;3.27;;;2.97;;
3849;SDS011;1940;51.052;13.678;2023-07-09T11:01:54;4.10;;;2.80;;
3849;SDS011;1940;51.052;13.678;2023-07-09T11:07:18;3.20;;;3.00;;
3849;SDS011;1940;51.052;13.678;2023-07-09T11:09:50;6.40;;;2.67;;
3849;SDS011;1940;51.052;13.678;2023-07-09T11:12:42;3.50;;;3.30;;
3849;SDS011;1940;51.052;13.678;2023-07-09T11:15:12;2.87;;;2.67;;
3849;SDS011;1940;51.052;13.678;2023-07-09T11:17:43;3.20;;;3.00;;
3849;SDS011;1940;51.052;13.678;2023-07-09T11:20:21;3.00;;;2.70;;
3849;SDS011;1940;51.052;13.678;2023-07-09T11:23:16;3.13;;;2.87;;
3849;SDS011;1940;51.052;13.678;2023-07-09T11:25:46;4.40;;;4.10;;
3849;SDS011;1940;51.052;13.678;2023-07-09T11:28:13;7.27;;;3.53;;
3849;SDS011;1940;51.052;13.678;2023-07-09T11:33:48;4.13;;;3.73;;
3849;SDS011;1940;51.052;13.678;2023-07-09T11:36:25;5.50;;;3.43;;
3849;SDS011;1940;51.052;13.678;2023-07-09T11:38:53;7.40;;;3.30;;
3849;SDS011;1940;51.052;13.678;2023-07-09T11:43:52;4.17;;;3.73;;
3849;SDS011;1940;51.052;13.678;2023-07-09T11:46:20;5.03;;;3.53;;
3849;SDS011;1940;51.052;13.678;2023-07-09T11:48:50;6.60;;;3.87;;
3849;SDS011;1940;51.052;13.678;2023-07-09T11:51:20;3.53;;;3.23;;
3849;SDS011;1940;51.052;13.678;2023-07-09T11:53:51;4.23;;;3.77;;
3849;SDS011;1940;51.052;13.678;2023-07-09T11:56:19;4.30;;;3.50;;
3849;SDS011;1940;51.052;13.678;2023-07-09T11:58:56;4.50;;;3.40;;
3849;SDS011;1940;51.052;13.678;2023-07-09T12:01:24;5.50;;;4.10;;
3849;SDS011;1940;51.052;13.678;2023-07-09T12:03:53;3.73;;;3.33;;
3849;SDS011;1940;51.052;13.678;2023-07-09T12:06:23;5.70;;;3.60;;
3849;SDS011;1940;51.052;13.678;2023-07-09T12:08:51;3.63;;;3.30;;
3849;SDS011;1940;51.052;13.678;2023-07-09T12:11:21;5.33;;;3.93;;
3849;SDS011;1940;51.052;13.678;2023-07-09T12:13:54;5.27;;;3.60;;
3849;SDS011;1940;51.052;13.678;2023-07-09T12:16:28;3.77;;;3.30;;
3849;SDS011;1940;51.052;13.678;2023-07-09T12:19:04;4.23;;;3.57;;
3849;SDS011;1940;51.052;13.678;2023-07-09T12:21:30;4.93;;;3.33;;
3849;SDS011;1940;51.052;13.678;2023-07-09T12:23:59;3.53;;;3.23;;
3849;SDS011;1940;51.052;13.678;2023-07-09T12:26:26;4.60;;;3.20;;
3849;SDS011;1940;51.052;13.678;2023-07-09T12:28:57;3.70;;;3.13;;
3849;SDS011;1940;51.052;13.678;2023-07-09T12:31:27;4.73;;;3.27;;
3849;SDS011;1940;51.052;13.678;2023-07-09T12:33:54;3.67;;;3.30;;
3849;SDS011;1940;51.052;13.678;2023-07-09T12:36:22;5.33;;;3.20;;
3849;SDS011;1940;51.052;13.678;2023-07-09T12:38:50;5.47;;;3.03;;
3849;SDS011;1940;51.052;13.678;2023-07-09T12:43:52;4.57;;;3.30;;
3849;SDS011;1940;51.052;13.678;2023-07-09T12:46:18;5.00;;;3.30;;
3849;SDS011;1940;51.052;13.678;2023-07-09T12:48:45;3.43;;;3.13;;
3849;SDS011;1940;51.052;13.678;2023-07-09T12:51:15;8.07;;;3.40;;
3849;SDS011;1940;51.052;13.678;2023-07-09T12:53:45;4.47;;;3.27;;
3849;SDS011;1940;51.052;13.678;2023-07-09T12:56:11;4.70;;;3.10;;
3849;SDS011;1940;51.052;13.678;2023-07-09T12:58:38;8.43;;;3.10;;
3849;SDS011;1940;51.052;13.678;2023-07-09T13:01:05;4.97;;;3.30;;
3849;SDS011;1940;51.052;13.678;2023-07-09T13:03:38;7.83;;;4.60;;
3849;SDS011;1940;51.052;13.678;2023-07-09T13:06:05;4.73;;;3.30;;
3849;SDS011;1940;51.052;13.678;2023-07-09T13:08:48;4.77;;;3.70;;
3849;SDS011;1940;51.052;13.678;2023-07-09T13:11:24;4.00;;;3.57;;
3849;SDS011;1940;51.052;13.678;2023-07-09T13:13:56;3.90;;;3.50;;
3849;SDS011;1940;51.052;13.678;2023-07-09T13:16:25;5.07;;;3.40;;
3849;SDS011;1940;51.052;13.678;2023-07-09T13:18:50;6.20;;;3.87;;
3849;SDS011;1940;51.052;13.678;2023-07-09T13:21:16;5.97;;;3.80;;
3849;SDS011;1940;51.052;13.678;2023-07-09T13:23:43;4.00;;;3.60;;
3849;SDS011;1940;51.052;13.678;2023-07-09T13:26:09;3.57;;;3.20;;
3849;SDS011;1940;51.052;13.678;2023-07-09T13:28:34;3.33;;;3.03;;
3849;SDS011;1940;51.052;13.678;2023-07-09T13:31:04;4.17;;;3.37;;
3849;SDS011;1940;51.052;13.678;2023-07-09T13:33:36;7.03;;;3.53;;
3849;SDS011;1940;51.052;13.678;2023-07-09T13:36:02;3.93;;;3.40;;
3849;SDS011;1940;51.052;13.678;2023-07-09T13:38:28;5.10;;;3.63;;
3849;SDS011;1940;51.052;13.678;2023-07-09T13:40:54;3.60;;;3.30;;
3849;SDS011;1940;51.052;13.678;2023-07-09T13:43:29;5.07;;;3.50;;
3849;SDS011;1940;51.052;13.678;2023-07-09T13:45:56;4.50;;;3.60;;
3849;SDS011;1940;51.052;13.678;2023-07-09T13:48:23;5.73;;;3.53;;
3849;SDS011;1940;51.052;13.678;2023-07-09T13:50:50;4.33;;;3.40;;
3849;SDS011;1940;51.052;13.678;2023-07-09T13:53:19;4.53;;;3.80;;
3849;SDS011;1940;51.052;13.678;2023-07-09T13:55:47;5.53;;;3.40;;
3849;SDS011;1940;51.052;13.678;2023-07-09T13:58:15;4.17;;;3.60;;
3849;SDS011;1940;51.052;13.678;2023-07-09T14:00:43;8.27;;;3.57;;
3849;SDS011;1940;51.052;13.678;2023-07-09T14:03:24;5.10;;;3.33;;
3849;SDS011;1940;51.052;13.678;2023-07-09T14:05:51;8.17;;;3.57;;
3849;SDS011;1940;51.052;13.678;2023-07-09T14:08:18;5.90;;;3.67;;
3849;SDS011;1940;51.052;13.678;2023-07-09T14:10:45;4.00;;;3.30;;
3849;SDS011;1940;51.052;13.678;2023-07-09T14:13:12;6.00;;;3.70;;
3849;SDS011;1940;51.052;13.678;2023-07-09T14:15:40;7.20;;;3.43;;
3849;SDS011;1940;51.052;13.678;2023-07-09T14:18:16;10.60;;;3.60;;
3849;SDS011;1940;51.052;13.678;2023-07-09T14:20:43;6.03;;;3.50;;
3849;SDS011;1940;51.052;13.678;2023-07-09T14:23:12;7.70;;;3.20;;
3849;SDS011;1940;51.052;13.678;2023-07-09T14:25:39;4.30;;;3.90;;
3849;SDS011;1940;51.052;13.678;2023-07-09T14:28:08;5.90;;;3.57;;
3849;SDS011;1940;51.052;13.678;2023-07-09T14:30:37;4.30;;;3.20;;
3849;SDS011;1940;51.052;13.678;2023-07-09T14:33:04;4.63;;;3.43;;
3849;SDS011;1940;51.052;13.678;2023-07-09T14:35:33;3.90;;;3.40;;
3849;SDS011;1940;51.052;13.678;2023-07-09T14:38:01;4.73;;;3.63;;
3849;SDS011;1940;51.052;13.678;2023-07-09T14:40:26;5.17;;;3.87;;
3849;SDS011;1940;51.052;13.678;2023-07-09T14:42:52;5.40;;;4.50;;
3849;SDS011;1940;51.052;13.678;2023-07-09T14:45:19;6.70;;;4.20;;
3849;SDS011;1940;51.052;13.678;2023-07-09T14:47:50;8.27;;;4.57;;
3849;SDS011;1940;51.052;13.678;2023-07-09T14:50:16;4.30;;;3.80;;
3849;SDS011;1940;51.052;13.678;2023-07-09T14:52:43;4.27;;;3.63;;
3849;SDS011;1940;51.052;13.678;2023-07-09T14:55:16;5.20;;;3.30;;
3849;SDS011;1940;51.052;13.678;2023-07-09T14:57:43;6.90;;;3.50;;
3849;SDS011;1940;51.052;13.678;2023-07-09T15:00:13;6.53;;;3.53;;
3849;SDS011;1940;51.052;13.678;2023-07-09T15:02:40;5.33;;;3.87;;
3849;SDS011;1940;51.052;13.678;2023-07-09T15:05:12;4.37;;;3.63;;
3849;SDS011;1940;51.052;13.678;2023-07-09T15:07:43;4.70;;;3.80;;
3849;SDS011;1940;51.052;13.678;2023-07-09T15:10:14;4.60;;;3.67;;
3849;SDS011;1940;51.052;13.678;2023-07-09T15:12:48;4.63;;;3.90;;
3849;SDS011;1940;51.052;13.678;2023-07-09T15:15:21;5.33;;;3.77;;
3849;SDS011;1940;51.052;13.678;2023-07-09T15:17:58;5.27;;;3.80;;
3849;SDS011;1940;51.052;13.678;2023-07-09T15:20:26;5.27;;;3.87;;
3849;SDS011;1940;51.052;13.678;2023-07-09T15:22:54;6.80;;;4.10;;
3849;SDS011;1940;51.052;13.678;2023-07-09T15:25:23;4.90;;;3.90;;
3849;SDS011;1940;51.052;13.678;2023-07-09T15:27:52;6.57;;;3.63;;
3849;SDS011;1940;51.052;13.678;2023-07-09T15:30:19;7.20;;;3.87;;
3849;SDS011;1940;51.052;13.678;2023-07-09T15:32:49;5.50;;;3.77;;
3849;SDS011;1940;51.052;13.678;2023-07-09T15:35:15;4.43;;;3.93;;